createdAt,value
2022-09-23T00:11:17.118Z,8.00
2022-09-23T00:26:19.449Z,8.01
2022-09-23T00:41:21.439Z,7.92
2022-09-23T00:56:23.315Z,7.86
2022-09-23T01:11:42.710Z,7.23
2022-09-23T01:27:01.559Z,6.77
2022-09-23T01:42:09.234Z,6.36
2022-09-23T01:57:15.739Z,6.86
2022-09-23T02:12:18.356Z,7.61
2022-09-23T02:27:35.418Z,7.56
2022-09-23T02:42:39.473Z,7.31
2022-09-23T02:57:41.973Z,7.22
2022-09-23T03:13:02.709Z,7.74
2022-09-23T03:28:05.710Z,7.93
2022-09-23T03:43:07.599Z,7.77
2022-09-23T03:58:09.716Z,7.71
2022-09-23T04:13:12.701Z,7.49
2022-09-23T04:28:14.779Z,7.71
2022-09-23T04:43:16.622Z,7.93
2022-09-23T04:58:18.621Z,7.84
2022-09-23T05:13:21.081Z,8.08
2022-09-23T05:28:23.003Z,9.04
2022-09-23T05:43:25.983Z,10.73
2022-09-23T05:58:28.923Z,11.72
2022-09-23T06:13:30.771Z,13.86
2022-09-23T06:28:33.536Z,13.83
2022-09-23T06:43:35.886Z,14.33
2022-09-23T06:58:39.021Z,14.61
2022-09-23T07:13:41.839Z,16.08
2022-09-23T07:28:44.420Z,16.42
2022-09-23T07:43:46.750Z,15.17
2022-09-23T07:59:10.214Z,14.56
2022-09-23T08:14:13.536Z,15.55
2022-09-23T08:29:16.415Z,16.27
2022-09-23T08:44:20.339Z,14.94
2022-09-23T08:59:22.188Z,16.28
2022-09-23T09:14:37.995Z,16.99
2022-09-23T09:29:41.778Z,18.53
2022-09-23T09:44:48.134Z,19.24
2022-09-23T09:59:49.965Z,20.64
2022-09-23T10:14:55.303Z,20.56
2022-09-23T10:29:58.040Z,20.80
2022-09-23T10:45:20.094Z,20.69
2022-09-23T11:00:41.055Z,21.81
2022-09-23T11:16:02.809Z,21.47
2022-09-23T11:31:07.695Z,22.48
2022-09-23T11:46:14.183Z,22.13
2022-09-23T12:01:28.856Z,22.94
2022-09-23T12:16:43.960Z,21.53
2022-09-23T12:31:46.889Z,20.39
2022-09-23T12:46:49.929Z,21.35
2022-09-23T13:01:51.911Z,21.48
2022-09-23T13:16:53.850Z,18.49
2022-09-23T13:31:56.535Z,18.38
2022-09-23T13:46:58.815Z,17.66
2022-09-23T14:02:03.641Z,17.43
2022-09-23T14:17:05.753Z,17.65
2022-09-23T14:32:20.917Z,17.30
2022-09-23T14:47:24.982Z,17.17
2022-09-23T15:02:27.485Z,16.78
2022-09-23T15:17:30.511Z,16.58
2022-09-23T15:32:32.385Z,16.82
2022-09-23T15:47:34.305Z,16.63
2022-09-23T16:02:36.230Z,16.04
2022-09-23T16:17:38.212Z,15.41
2022-09-23T16:32:40.098Z,14.82
2022-09-23T16:47:44.706Z,14.28
2022-09-23T17:03:05.383Z,13.50
2022-09-23T17:18:08.311Z,13.48
2022-09-23T17:33:11.879Z,13.47
2022-09-23T17:48:17.217Z,13.08
2022-09-23T18:03:19.129Z,13.20
2022-09-23T18:18:21.017Z,13.08
2022-09-23T18:33:23.652Z,12.93
2022-09-23T18:48:44.394Z,12.72
2022-09-23T19:03:46.259Z,12.80
2022-09-23T19:18:48.909Z,12.43
2022-09-23T19:33:56.315Z,12.56
2022-09-23T19:48:58.394Z,12.60
2022-09-23T20:04:00.407Z,12.65
2022-09-23T20:19:03.944Z,12.29
2022-09-23T20:34:06.979Z,11.81
2022-09-23T20:49:09.072Z,11.88
2022-09-23T21:04:11.058Z,12.04
2022-09-23T21:19:13.028Z,11.35
2022-09-23T21:34:15.875Z,10.83
2022-09-23T21:49:17.735Z,10.98
2022-09-23T22:04:20.620Z,10.95
2022-09-23T22:19:22.629Z,11.11
2022-09-23T22:34:48.368Z,11.16
2022-09-23T22:49:55.132Z,10.91
2022-09-23T23:05:00.297Z,10.76
2022-09-23T23:20:02.194Z,10.74
2022-09-23T23:35:04.357Z,10.55
2022-09-23T23:50:06.391Z,10.63
